Create Custom Reports and Graphics: Custom Report

Belmont 8000'

Squaw Valley

11/19/19 4:15 PM (-08:00)
Updated Every 15 Minutes
Temp 33.1 °F   18.6
RH 72 %   35
Dew Pt 25.0 °F   1.3
Wet Bulb 29.7 °F   10.0
Wind Dir WSW | 242 °
Wind Spd 9.4 mph   0.8
Wind Gust 17.0 mph   0.4
WindChill 26.0 °F   23.1
Daily Min Temp 33.1 °F   12.3
Daily Max Temp 43.0 °F   15.4
Latest Rain 0.00 In
Daily Rain 0.00 In
New Snow 0.0 in
SnowDepth 0.1 in

Last 24 Hours

Squaw-Belmont 8000'

Hourly Data | America/Los_Angeles
as of 11/19/19 4:29 PM PST
Date & Time Temp (°F) RH (%) Dew Pt (°F) Wet Bulb (°F) Wind Dir (°) Wind Spd (mph) Wind Gust (mph) WindChill (°F) Latest Rain (In) New Snow (in) SnowDepth (in) Daily Min Temp (°F) Daily Max Temp (°F) Daily Rain (In)
11/19/19 - 1600 33.4 79 27.7 30.9 SW | 234 10.9 20.9 27.3 0.00 0.0 0.1 33.4 43.0 0.00
11/19/19 - 1500 36.2 73 28.6 32.8 SW | 236 11.0 23.0 29.6 0.00 0.0 0.0 36.2 43.0 0.00
11/19/19 - 1400 36.7 85 32.6 34.8 SW | 228 8.1 23.0 32.1 0.00 0.0 - 36.5 43.0 0.00
11/19/19 - 1300 38.7 79 32.9 35.9 SSW | 213 7.7 21.6 34.6 0.00 0.0 0.0 37.4 43.0 0.00
11/19/19 - 1200 39.8 75 32.5 36.3 SW | 217 7.9 18.5 35.4 0.00 0.0 0.0 37.4 43.0 0.00
11/19/19 - 1100 39.7 77 33.0 36.4 SW | 222 8.2 23.2 34.5 0.00 0.0 - 37.4 43.0 0.00
11/19/19 - 1000 39.6 80 33.8 36.8 WSW | 244 7.9 23.5 34.7 0.00 0.0 - 37.4 43.0 0.00
11/19/19 - 0900 39.0 82 34.1 36.5 WSW | 249 9.5 25.6 32.4 0.00 0.0 0.1 37.4 43.0 0.00
11/19/19 - 0800 37.5 81 32.2 35.0 WSW | 241 13.8 24.6 29.4 0.00 0.0 0.0 37.4 43.0 0.00
11/19/19 - 0700 37.8 71 29.4 33.9 WSW | 248 10.5 30.0 32.1 0.00 0.0 0.1 37.8 43.0 0.00
11/19/19 - 0600 38.5 70 29.5 34.4 WSW | 246 10.5 26.6 32.0 0.00 0.0 0.0 38.0 43.0 0.00
11/19/19 - 0500 38.6 59 25.6 32.9 SW | 235 12.5 27.6 31.0 0.00 0.0 0.1 38.0 43.0 0.00
11/19/19 - 0400 38.8 47 20.2 31.2 WSW | 239 15.4 34.6 32.0 0.00 0.0 0.1 38.8 43.0 0.00
11/19/19 - 0300 41.3 40 18.9 32.2 WSW | 237 9.9 32.7 37.1 0.00 0.0 0.1 41.2 43.0 0.00
11/19/19 - 0200 42.5 38 18.6 32.8 SSW | 197 7.9 20.7 37.9 0.00 0.0 0.1 41.8 42.9 0.00
11/19/19 - 0100 42.3 38 18.4 32.6 SW | 220 6.8 24.4 38.8 0.00 0.0 0.1 41.8 42.8 0.00
11/19/19 - 0000 42.3 41 20.5 33.2 WSW | 244 8.2 24.9 38.6 0.00 0.0 0.0 42.3 58.4 0.00
11/18/19 - 2300 43.3 38 19.3 33.4 SSW | 212 5.7 18.5 41.5 0.00 0.0 0.1 43.3 58.4 0.00
11/18/19 - 2200 44.7 38 20.6 34.5 S | 186 6.9 20.0 42.2 0.00 0.0 0.1 44.7 58.4 0.00
11/18/19 - 2100 46.1 38 21.7 35.5 SW | 224 7.1 17.5 43.1 0.00 0.0 0.1 45.4 58.4 0.00
11/18/19 - 2000 47.2 34 20.6 35.8 SSW | 213 8.5 19.1 43.7 0.00 0.0 0.1 45.4 58.4 0.00
11/18/19 - 1900 48.1 32 19.9 36.0 SW | 233 9.5 17.2 44.2 0.00 0.0 0.0 45.4 58.4 0.00
11/18/19 - 1800 48.2 36 22.3 36.8 SW | 228 9.3 17.4 44.6 0.00 0.0 0.1 45.4 58.4 0.00
11/18/19 - 1700 49.5 37 24.4 38.0 WSW | 242 10.4 17.4 47.2 0.00 0.0 0.0 45.4 58.4 0.00
11/18/19 - 1600 52.7 33 24.8 39.7 SW | 222 9.4 18.2 53.6 0.00 0.0 0.0 45.4 58.4 0.00
Max 52.7 85 34.1 39.7 - 15.4 34.6 53.6 0.00 0.0 0.1 45.4 58.4 0.00
Avg 41.7 56 25.7 34.7 - 9.3 22.8 37.2 0.00 0.0 0.1 - - -
Min 33.4 32 18.4 30.9 - 5.7 17.2 27.3 0.00 0.0 0.0 33.4 42.8 0.00
Total - - - - - - - - 0.00 - - - - -

Last 30 Days

Squaw-Belmont 8000'

Daily Data | America/Los_Angeles
as of 11/19/19 4:29 PM PST
Date Daily Max Temp (°F) Max Temp Time Daily Min Temp (°F) Min Temp Time Daily Rain (In) Seasonal Rainfall (In) New Snow (in) SnowDepth (in) Wind Spd (mph) Daily Max Wind (mph) Max Wind Time Max Wind Dir (°) Max RH (%) Min RH (%) Wet Bulb (°F) WetB Hrs <28F (hrs) Bat Volt Min Day (V)
11/18/19 58.4 1226 42.3 2359 0.00 58.28 0.0 0.0 8.3 24.9 2331 SW | 221 44 21 37.6 0.0 12.94
11/17/19 58.5 1252 36.2 0009 0.00 58.28 0.0 0.2 1.8 8.6 0259 ESE | 123 59 21 35.6 0.0 12.94
11/16/19 50.3 1401 33.2 0443 0.00 58.28 0.0 0.1 2.2 10.2 0946 SE | 133 58 22 31.8 0.8 12.94
11/15/19 46.6 1136 35.9 0324 0.00 58.28 0.0 0.0 5.6 25.8 0805 SSW | 201 62 34 32.2 0.0 12.96
11/14/19 52.0 1034 37.8 2251 0.00 58.28 0.0 0.0 7.6 24.5 1854 SSW | 202 64 31 35.4 0.0 12.93
11/13/19 55.1 1151 39.6 0229 0.00 58.28 0.0 - 5.4 17.3 0905 SW | 219 40 12 35.0 0.2 12.93
11/12/19 55.8 1307 41.3 0008 0.00 58.28 0.0 - 6.8 18.6 1032 SW | 236 61 16 36.0 0.0 12.94
11/11/19 50.4 1338 37.4 0651 0.00 58.28 0.0 - 2.4 12.6 0302 E | 88 58 36 34.9 0.0 12.92
11/10/19 53.3 1311 40.3 0055 0.00 58.28 0.0 - 2.4 10.4 1716 NE | 36 43 25 34.4 0.0 12.95
11/9/19 56.2 1333 40.8 2327 0.00 58.28 0.0 - 2.4 10.7 2011 NE | 35 39 22 34.8 0.0 12.94
11/8/19 56.4 1130 40.7 0001 0.00 58.28 0.0 - 4.5 14.5 0352 S | 189 39 17 34.5 0.0 12.94
11/7/19 55.1 1054 36.0 0606 0.00 58.28 0.0 0.2 2.3 15.7 1152 SW | 219 43 21 33.2 0.7 12.94
11/6/19 - 0001 - 0001 0.00 58.28 0.0 79.1 2.6 10.0 0524 WSW | 246 46 19 - 0.0 12.93
11/5/19 - 0001 - 0001 0.00 58.28 - - 1.3 10.4 0135 S | 177 36 36 - 0.0 13.06
11/4/19 - 0001 - 0001 0.00 58.28 - - 2.6 11.0 1101 E | 89 36 36 - 0.0 13.06
11/3/19 - 0001 - 0001 0.00 58.28 - - 1.3 7.3 1516 SSE | 157 36 36 - 0.0 13.20
11/2/19 - 0001 - 0001 0.00 58.28 - - 3.0 11.6 1527 SW | 218 36 36 - 0.0 13.20
11/1/19 - 0001 - 0001 0.00 58.28 - - 2.3 11.6 1446 E | 100 36 36 - 0.0 13.27
10/31/19 - 0001 - 0001 0.00 58.28 - - 2.4 11.9 0146 WSW | 248 36 36 - 0.0 13.26
10/30/19 - 0001 - 0001 0.00 58.28 - - 2.2 11.4 0023 ESE | 122 36 36 - 0.0 13.40
10/29/19 - 0001 - 0001 0.00 58.28 - - 7.1 25.8 0118 NW | 308 36 36 - 0.0 13.46
10/28/19 - 0001 - 0001 0.00 58.28 - - 6.8 27.1 2025 NW | 308 36 36 - 0.0 13.33
10/27/19 - 0001 - 0001 0.00 58.28 - - 8.2 29.1 1730 NNE | 32 36 36 - 0.0 13.43
10/26/19 - 0001 - 0001 0.00 58.28 - - 8.5 25.7 2127 SSW | 210 36 36 - 0.0 13.16
10/25/19 - 0001 - 0001 0.00 58.28 - - 4.0 16.9 1418 W | 259 36 36 - 0.0 13.13
10/24/19 - 0001 - 0001 0.00 58.28 - - 5.1 21.4 0029 E | 97 36 36 - 0.0 13.23
10/23/19 - 0001 - 0001 0.00 58.28 - - 5.5 24.7 2209 NE | 54 36 36 - 0.0 13.26
10/22/19 - 0001 - 0001 0.00 58.28 - - 2.8 10.2 0419 W | 260 36 36 - 0.0 13.18
10/21/19 - 0001 - 0001 0.00 58.28 - - 5.2 23.6 0239 N | 349 36 36 - 0.0 13.26
10/20/19 - 0001 - 0001 0.00 58.28 - - 3.3 18.8 1603 NNW | 347 36 36 - 0.0 13.30
Max 58.5 - 42.3 - 0.00 - 0.0 79.1 8.5 29.1 - - 64 36 37.6 0.8 13.46
Avg - - - - - - 0.0 11.4 4.2 - - - - - 34.6 - -
Min 46.6 - 33.2 - 0.00 - 0.0 0.0 1.3 7.3 - - 36 12 31.8 0.0 12.92
Calm: 0.0%
Calm: 0.0%